Time;durP1;ratioP1;P1;durP2;ratioP2;P2;SDS_P1;SDS_P2;PMS_P1;PMS_P2;Temp;Humidity;BMP_temperature;BMP_pressure;BME280_temperature;BME280_humidity;BME280_pressure;Samples;Min_cycle;Max_cycle;Signal;HPM_P1;HPM_P2
2024/02/10 00:02:38;;;;;;;21.30;16.75;;;;;;;;;;9905881;28;20047;-75
2024/02/10 00:07:32;;;;;;;15.55;13.90;;;;;;;;;;9905710;28;20137;-75
2024/02/10 00:12:24;;;;;;;11.82;10.73;;;;;;;;;;9905360;28;20097;-75
2024/02/10 00:17:16;;;;;;;12.60;10.77;;;;;;;;;;9904650;28;20496;-75
2024/02/10 00:22:08;;;;;;;11.60;10.40;;;;;;;;;;9905249;28;20055;-75
2024/02/10 00:27:01;;;;;;;16.88;9.35;;;;;;;;;;9905114;28;20054;-75
2024/02/10 00:31:54;;;;;;;9.18;8.23;;;;;;;;;;9905761;28;20150;-75
2024/02/10 00:36:48;;;;;;;9.80;8.48;;;;;;;;;;9906052;28;20047;-75
2024/02/10 00:41:40;;;;;;;20.45;12.45;;;;;;;;;;9905025;28;20395;-75
2024/02/10 00:46:32;;;;;;;14.23;9.57;;;;;;;;;;9905489;28;20096;-75
2024/02/10 00:51:24;;;;;;;11.77;8.23;;;;;;;;;;9904456;28;20047;-75
2024/02/10 00:56:15;;;;;;;11.50;7.57;;;;;;;;;;9905060;28;20083;-76
2024/02/10 01:01:11;;;;;;;12.52;7.43;;;;;;;;;;9904744;28;20103;-75
2024/02/10 01:06:05;;;;;;;12.75;5.15;;;;;;;;;;9905434;28;20423;-75
2024/02/10 01:10:57;;;;;;;13.48;11.95;;;;;;;;;;9904408;28;20446;-76
2024/02/10 01:15:50;;;;;;;15.77;14.18;;;;;;;;;;9903825;28;20486;-75
2024/02/10 01:20:42;;;;;;;19.38;15.75;;;;;;;;;;9904028;28;20114;-74
2024/02/10 01:25:34;;;;;;;23.73;14.80;;;;;;;;;;9903724;28;20451;-75
2024/02/10 01:30:26;;;;;;;12.48;9.63;;;;;;;;;;9911776;28;20078;-75
2024/02/10 01:35:18;;;;;;;12.20;8.93;;;;;;;;;;9912945;28;20058;-75
2024/02/10 01:40:11;;;;;;;9.15;8.25;;;;;;;;;;9913637;28;20047;-75
2024/02/10 01:45:08;;;;;;;23.35;15.90;;;;;;;;;;9910968;28;20098;-75
2024/02/10 01:50:01;;;;;;;22.00;14.85;;;;;;;;;;9910729;28;20046;-75
2024/02/10 01:54:53;;;;;;;18.30;15.68;;;;;;;;;;9893820;28;20054;-75
2024/02/10 01:59:47;;;;;;;20.58;14.73;;;;;;;;;;9910427;28;20151;-75
2024/02/10 02:04:39;;;;;;;15.18;13.55;;;;;;;;;;9908860;28;20435;-75
2024/02/10 02:09:31;;;;;;;14.13;12.45;;;;;;;;;;9911099;28;20375;-75
2024/02/10 02:14:23;;;;;;;14.55;12.55;;;;;;;;;;9909245;28;20787;-75
2024/02/10 02:19:18;;;;;;;20.65;14.43;;;;;;;;;;9910249;28;20450;-75
2024/02/10 02:24:10;;;;;;;17.27;14.45;;;;;;;;;;9909477;28;20050;-75
2024/02/10 02:29:07;;;;;;;18.15;13.93;;;;;;;;;;9909716;28;20090;-74
2024/02/10 02:34:02;;;;;;;19.83;14.65;;;;;;;;;;9909345;28;20058;-75
2024/02/10 02:38:54;;;;;;;19.55;16.30;;;;;;;;;;9908174;28;20138;-75
2024/02/10 02:43:47;;;;;;;20.20;14.60;;;;;;;;;;9908841;28;20301;-75
2024/02/10 02:48:39;;;;;;;26.23;20.88;;;;;;;;;;9907388;28;20102;-75
2024/02/10 02:53:31;;;;;;;18.83;15.73;;;;;;;;;;9908778;28;20078;-75
2024/02/10 02:58:23;;;;;;;18.08;16.05;;;;;;;;;;9908337;28;20051;-75
2024/02/10 03:03:16;;;;;;;23.10;15.73;;;;;;;;;;9908457;28;20083;-75
2024/02/10 03:08:09;;;;;;;17.77;13.48;;;;;;;;;;9898637;28;20145;-74
2024/02/10 03:13:01;;;;;;;13.30;11.68;;;;;;;;;;9907183;28;20073;-75
2024/02/10 03:17:55;;;;;;;22.23;14.05;;;;;;;;;;9907798;28;20122;-75
2024/02/10 03:22:53;;;;;;;23.20;14.68;;;;;;;;;;9907918;28;20043;-74
2024/02/10 03:27:46;;;;;;;;;;;;;;;;;;9911167;28;20051;-74
2024/02/10 03:32:38;;;;;;;21.02;13.38;;;;;;;;;;9906667;28;20420;-74
2024/02/10 03:37:30;;;;;;;19.40;13.98;;;;;;;;;;9908343;28;20744;-75
2024/02/10 03:42:22;;;;;;;15.30;13.70;;;;;;;;;;9905439;28;20362;-74
2024/02/10 03:47:14;;;;;;;16.77;13.20;;;;;;;;;;9907200;28;20059;-75
2024/02/10 03:52:06;;;;;;;19.42;13.75;;;;;;;;;;9905592;28;20051;-74
2024/02/10 03:56:58;;;;;;;21.95;14.82;;;;;;;;;;9906740;28;20059;-74
2024/02/10 04:01:50;;;;;;;17.13;13.88;;;;;;;;;;9905650;28;20098;-73
2024/02/10 04:06:42;;;;;;;17.60;13.98;;;;;;;;;;9906300;28;20046;-74
2024/02/10 04:11:34;;;;;;;17.52;14.05;;;;;;;;;;9905667;28;20047;-74
2024/02/10 04:16:26;;;;;;;20.67;14.43;;;;;;;;;;9905309;28;20446;-74
2024/02/10 04:21:18;;;;;;;22.40;14.70;;;;;;;;;;9905069;28;20150;-75
2024/02/10 04:26:10;;;;;;;16.48;12.70;;;;;;;;;;9903658;28;20149;-74
2024/02/10 04:31:03;;;;;;;22.25;12.82;;;;;;;;;;9906252;28;20134;-73
2024/02/10 04:35:55;;;;;;;18.85;12.20;;;;;;;;;;9904927;28;20051;-74
2024/02/10 04:40:47;;;;;;;21.05;13.75;;;;;;;;;;9904415;28;20043;-74
2024/02/10 04:45:40;;;;;;;17.05;13.95;;;;;;;;;;9905408;28;20075;-73
2024/02/10 04:50:32;;;;;;;18.85;16.95;;;;;;;;;;9904779;28;20122;-73
2024/02/10 04:55:24;;;;;;;18.55;14.35;;;;;;;;;;9905367;28;20047;-72
2024/02/10 05:00:20;;;;;;;17.52;15.57;;;;;;;;;;9904531;28;20059;-73
2024/02/10 05:05:13;;;;;;;18.77;14.40;;;;;;;;;;9935181;28;20433;-73
2024/02/10 05:10:08;;;;;;;15.43;13.75;;;;;;;;;;9931551;28;20051;-73
2024/02/10 05:15:00;;;;;;;17.88;13.35;;;;;;;;;;9948711;28;20057;-72
2024/02/10 05:19:52;;;;;;;17.15;13.35;;;;;;;;;;9948385;28;20089;-72
2024/02/10 05:24:48;;;;;;;19.02;14.88;;;;;;;;;;9948770;28;20046;-72
2024/02/10 05:29:42;;;;;;;18.20;14.45;;;;;;;;;;9948973;28;20153;-72
2024/02/10 05:34:34;;;;;;;18.15;13.05;;;;;;;;;;9931974;28;20500;-72
2024/02/10 05:39:26;;;;;;;18.15;12.13;;;;;;;;;;9945116;28;20058;-72
2024/02/10 05:44:19;;;;;;;15.93;12.40;;;;;;;;;;9948010;28;20371;-72
2024/02/10 05:49:11;;;;;;;16.55;12.63;;;;;;;;;;9946795;28;20403;-72
2024/02/10 05:54:04;;;;;;;19.95;13.15;;;;;;;;;;9947460;28;20047;-72
2024/02/10 05:58:56;;;;;;;16.88;12.57;;;;;;;;;;9948323;28;20051;-72
2024/02/10 06:03:52;;;;;;;18.48;12.38;;;;;;;;;;9946604;28;20047;-72
2024/02/10 06:08:45;;;;;;;19.77;14.50;;;;;;;;;;9946291;28;20101;-72
2024/02/10 06:13:38;;;;;;;16.10;12.93;;;;;;;;;;9947174;28;20039;-72
2024/02/10 06:18:30;;;;;;;18.48;13.05;;;;;;;;;;9946175;28;20664;-73
2024/02/10 06:23:25;;;;;;;14.95;11.93;;;;;;;;;;9944174;28;20058;-72
2024/02/10 06:28:20;;;;;;;20.35;13.30;;;;;;;;;;9937065;28;20498;-72
2024/02/10 06:33:12;;;;;;;19.67;14.95;;;;;;;;;;9946689;28;20043;-72
2024/02/10 06:38:04;;;;;;;22.30;13.05;;;;;;;;;;9946411;28;20055;-73
2024/02/10 06:43:02;;;;;;;20.10;14.07;;;;;;;;;;9946306;28;20054;-72
2024/02/10 06:47:54;;;;;;;15.85;13.02;;;;;;;;;;9946372;28;20694;-72
2024/02/10 06:52:47;;;;;;;17.02;14.45;;;;;;;;;;9945536;28;20462;-73
2024/02/10 06:57:43;;;;;;;16.00;13.57;;;;;;;;;;9944750;28;20054;-72
2024/02/10 07:02:35;;;;;;;15.40;12.48;;;;;;;;;;9945631;28;20119;-72
2024/02/10 07:07:26;;;;;;;25.55;15.13;;;;;;;;;;9942489;28;20470;-72
2024/02/10 07:12:18;;;;;;;17.48;14.77;;;;;;;;;;9942605;28;20047;-72
2024/02/10 07:17:10;;;;;;;17.33;14.13;;;;;;;;;;9924936;28;20062;-72
2024/02/10 07:22:02;;;;;;;17.90;14.70;;;;;;;;;;9908326;28;20078;-73
2024/02/10 07:26:56;;;;;;;24.38;15.57;;;;;;;;;;9906848;28;20051;-73
2024/02/10 07:31:48;;;;;;;18.92;16.08;;;;;;;;;;9906310;28;20602;-73
2024/02/10 07:36:40;;;;;;;27.38;15.43;;;;;;;;;;9907896;28;20414;-73
2024/02/10 07:41:34;;;;;;;20.70;15.23;;;;;;;;;;9906787;28;20176;-72
2024/02/10 07:46:26;;;;;;;24.00;17.27;;;;;;;;;;9907942;28;20047;-72
2024/02/10 07:51:20;;;;;;;25.52;17.27;;;;;;;;;;9909846;28;20490;-72
2024/02/10 07:56:12;;;;;;;18.02;15.90;;;;;;;;;;9913132;28;20232;-72
2024/02/10 08:01:05;;;;;;;21.13;17.20;;;;;;;;;;9915120;28;20043;-72
2024/02/10 08:05:57;;;;;;;23.40;17.92;;;;;;;;;;9929668;28;20054;-73
2024/02/10 08:10:49;;;;;;;26.25;19.55;;;;;;;;;;9942194;28;20053;-72
2024/02/10 08:15:41;;;;;;;25.27;18.85;;;;;;;;;;9938337;28;20393;-73
2024/02/10 08:20:33;;;;;;;25.38;20.08;;;;;;;;;;9925461;28;20055;-72
2024/02/10 08:25:27;;;;;;;28.50;20.88;;;;;;;;;;9903878;28;20728;-72
2024/02/10 08:30:20;;;;;;;25.10;20.08;;;;;;;;;;9924633;28;20125;-72
2024/02/10 08:35:13;;;;;;;33.42;25.27;;;;;;;;;;9932975;28;20058;-72
2024/02/10 08:40:09;;;;;;;31.00;24.13;;;;;;;;;;9925489;28;20046;-72
2024/02/10 08:45:05;;;;;;;37.45;26.00;;;;;;;;;;9911708;28;20094;-72
2024/02/10 08:49:57;;;;;;;34.95;25.98;;;;;;;;;;9925856;28;20047;-73
2024/02/10 08:54:49;;;;;;;41.90;27.05;;;;;;;;;;9930502;28;20090;-72
2024/02/10 08:59:45;;;;;;;47.35;27.45;;;;;;;;;;9923598;28;20074;-73
2024/02/10 09:04:41;;;;;;;36.83;27.52;;;;;;;;;;9916079;28;20497;-72
2024/02/10 09:09:33;;;;;;;39.38;24.98;;;;;;;;;;9935955;28;20156;-72
2024/02/10 09:14:25;;;;;;;40.25;26.10;;;;;;;;;;9940275;28;20363;-72
2024/02/10 09:19:18;;;;;;;52.17;35.60;;;;;;;;;;9939738;28;20121;-72
2024/02/10 09:24:13;;;;;;;31.50;22.92;;;;;;;;;;9940020;28;20534;-72
2024/02/10 09:29:05;;;;;;;32.95;22.20;;;;;;;;;;9940269;28;20046;-72
2024/02/10 09:33:57;;;;;;;34.30;25.83;;;;;;;;;;9903876;28;20505;-72
2024/02/10 09:38:51;;;;;;;37.00;25.20;;;;;;;;;;9926270;28;20057;-72
2024/02/10 09:43:46;;;;;;;58.10;35.67;;;;;;;;;;9940917;28;20367;-72
2024/02/10 09:48:40;;;;;;;52.58;31.70;;;;;;;;;;9919333;28;20062;-74
2024/02/10 09:53:33;;;;;;;51.20;34.30;;;;;;;;;;9932278;28;20054;-72
2024/02/10 09:58:28;;;;;;;52.92;34.30;;;;;;;;;;9929242;28;20051;-72
2024/02/10 10:03:21;;;;;;;69.63;40.00;;;;;;;;;;9925176;28;20106;-71
2024/02/10 10:08:22;;;;;;;73.40;40.30;;;;;;;;;;9929167;28;20039;-72
2024/02/10 10:13:14;;;;;;;57.92;35.45;;;;;;;;;;9946435;28;20059;-72
2024/02/10 10:18:15;;;;;;;63.53;33.00;;;;;;;;;;9942636;28;20067;-72
2024/02/10 10:23:08;;;;;;;61.40;34.88;;;;;;;;;;9946225;28;20054;-72
2024/02/10 10:28:00;;;;;;;69.22;37.42;;;;;;;;;;9946363;28;20098;-72
2024/02/10 10:32:53;;;;;;;67.28;37.55;;;;;;;;;;9928460;28;20054;-72
2024/02/10 10:37:48;;;;;;;67.80;37.63;;;;;;;;;;9928837;28;20074;-72
2024/02/10 10:42:41;;;;;;;64.38;33.60;;;;;;;;;;9944521;28;20105;-72
2024/02/10 10:47:34;;;;;;;62.22;35.13;;;;;;;;;;9928127;28;20046;-72
2024/02/10 10:52:27;;;;;;;74.63;41.15;;;;;;;;;;9927196;28;20109;-72
2024/02/10 10:57:21;;;;;;;71.70;42.97;;;;;;;;;;9924878;28;20420;-72
2024/02/10 11:02:14;;;;;;;90.05;46.97;;;;;;;;;;9911024;28;20117;-72
2024/02/10 11:07:17;;;;;;;67.18;38.80;;;;;;;;;;9913692;28;20255;-72
2024/02/10 11:12:15;;;;;;;66.85;37.78;;;;;;;;;;9915657;28;20055;-72
2024/02/10 11:17:12;;;;;;;55.58;31.13;;;;;;;;;;9913553;28;20059;-72
2024/02/10 11:22:06;;;;;;;44.80;25.88;;;;;;;;;;9920855;28;20074;-72
2024/02/10 11:26:58;;;;;;;38.35;26.23;;;;;;;;;;9941943;28;20542;-72
2024/02/10 11:31:50;;;;;;;48.95;27.35;;;;;;;;;;9914589;28;20047;-72
2024/02/10 11:36:54;;;;;;;52.33;31.65;;;;;;;;;;9931538;28;20059;-72
2024/02/10 11:41:47;;;;;;;43.30;26.50;;;;;;;;;;9943626;28;20047;-72
2024/02/10 11:46:39;;;;;;;50.50;28.13;;;;;;;;;;9943871;28;20102;-73
2024/02/10 11:51:31;;;;;;;41.78;29.17;;;;;;;;;;9925059;28;20055;-72
2024/02/10 11:56:33;;;;;;;50.58;30.65;;;;;;;;;;9908270;28;20121;-72
2024/02/10 12:01:32;;;;;;;43.90;28.83;;;;;;;;;;9917726;28;20443;-72
2024/02/10 12:06:25;;;;;;;48.33;29.52;;;;;;;;;;9938922;28;20471;-73
2024/02/10 12:11:26;;;;;;;48.50;30.38;;;;;;;;;;9941572;28;20077;-73
2024/02/10 12:16:18;;;;;;;41.42;25.02;;;;;;;;;;9940484;28;20059;-73
2024/02/10 12:21:11;;;;;;;32.78;24.33;;;;;;;;;;9941806;28;20051;-72
2024/02/10 12:26:03;;;;;;;31.73;23.20;;;;;;;;;;9921277;28;20051;-73
2024/02/10 12:31:20;;;;;;;40.97;26.23;;;;;;;;;;9938085;28;20043;-72
2024/02/10 12:36:14;;;;;;;37.70;25.73;;;;;;;;;;9937646;28;20047;-73
2024/02/10 12:41:06;;;;;;;35.80;24.33;;;;;;;;;;9940898;28;20494;-72
2024/02/10 12:45:58;;;;;;;33.70;22.80;;;;;;;;;;9941966;28;20058;-72
2024/02/10 12:50:50;;;;;;;35.38;23.15;;;;;;;;;;9940960;28;20134;-73
2024/02/10 12:55:44;;;;;;;34.65;23.15;;;;;;;;;;9941135;28;20055;-73
2024/02/10 13:00:37;;;;;;;31.42;24.55;;;;;;;;;;9940989;28;20105;-72
2024/02/10 13:05:29;;;;;;;31.88;22.80;;;;;;;;;;9940820;28;20051;-72
2024/02/10 13:10:25;;;;;;;41.30;23.42;;;;;;;;;;9937099;28;20050;-73
2024/02/10 13:15:23;;;;;;;27.83;20.60;;;;;;;;;;9937630;28;20130;-73
2024/02/10 13:20:19;;;;;;;25.33;20.50;;;;;;;;;;9932981;28;20375;-73
2024/02/10 13:25:11;;;;;;;29.65;18.35;;;;;;;;;;9927811;28;20047;-72
2024/02/10 13:30:08;;;;;;;22.35;16.00;;;;;;;;;;9939434;28;20081;-73
2024/02/10 13:35:01;;;;;;;24.57;15.53;;;;;;;;;;9939815;28;20175;-73
2024/02/10 14:00:53;;;;;;;19.23;10.38;;;;;;;;;;9931622;28;20054;-73
2024/02/10 14:11:07;;;;;;;18.75;11.13;;;;;;;;;;9936209;28;20047;-72
2024/02/10 14:15:56;;;;;;;18.50;11.02;;;;;;;;;;9934232;28;20051;-73
2024/02/10 14:20:49;;;;;;;25.25;11.30;;;;;;;;;;9928290;28;20051;-72
2024/02/10 14:25:41;;;;;;;28.42;16.08;;;;;;;;;;9931608;28;20155;-71
2024/02/10 14:30:38;;;;;;;18.65;11.82;;;;;;;;;;9939294;28;20477;-72
2024/02/10 14:35:49;;;;;;;23.60;12.35;;;;;;;;;;9934203;28;20046;-72
2024/02/10 14:40:41;;;;;;;22.90;10.18;;;;;;;;;;9922445;28;20047;-73
2024/02/10 14:45:34;;;;;;;18.35;10.90;;;;;;;;;;9927237;28;20089;-72
2024/02/10 14:50:27;;;;;;;26.45;16.88;;;;;;;;;;9913055;28;20047;-72
2024/02/10 14:55:19;;;;;;;22.73;13.88;;;;;;;;;;9920253;28;20117;-72
2024/02/10 15:00:12;;;;;;;25.40;11.90;;;;;;;;;;9909897;28;20565;-72
2024/02/10 15:05:06;;;;;;;21.83;12.30;;;;;;;;;;9901144;28;20486;-72
2024/02/10 15:09:58;;;;;;;30.02;21.17;;;;;;;;;;9918700;28;20747;-72
2024/02/10 15:14:50;;;;;;;27.35;17.75;;;;;;;;;;9923481;28;20047;-72
2024/02/10 15:19:45;;;;;;;33.70;17.30;;;;;;;;;;9940654;28;20398;-71
2024/02/10 15:24:37;;;;;;;37.83;17.15;;;;;;;;;;9930024;28;20054;-72
2024/02/10 15:29:29;;;;;;;29.67;17.83;;;;;;;;;;9941011;28;20355;-72
2024/02/10 15:34:21;;;;;;;37.85;14.77;;;;;;;;;;9936833;28;20054;-72
2024/02/10 15:39:14;;;;;;;24.73;15.00;;;;;;;;;;9934129;28;20425;-71
2024/02/10 15:44:06;;;;;;;28.63;17.58;;;;;;;;;;9941419;28;20038;-72
2024/02/10 15:49:04;;;;;;;39.30;18.85;;;;;;;;;;9929710;28;20042;-72
2024/02/10 15:53:56;;;;;;;26.45;17.10;;;;;;;;;;9930497;28;20842;-71
2024/02/10 15:58:52;;;;;;;34.15;16.77;;;;;;;;;;9925634;28;20043;-72
2024/02/10 16:03:44;;;;;;;38.53;17.33;;;;;;;;;;9922161;28;20512;-71
2024/02/10 16:08:37;;;;;;;29.58;16.90;;;;;;;;;;9935121;28;20094;-74
2024/02/10 16:13:31;;;;;;;40.00;18.90;;;;;;;;;;9928150;28;20043;-73
2024/02/10 16:18:22;;;;;;;27.98;18.08;;;;;;;;;;9928839;28;20055;-72
2024/02/10 16:23:16;;;;;;;27.55;17.00;;;;;;;;;;9946050;28;20062;-72
2024/02/10 16:28:08;;;;;;;34.67;20.05;;;;;;;;;;9934106;28;20118;-71
2024/02/10 16:33:00;;;;;;;30.90;18.80;;;;;;;;;;9931331;28;20051;-72
2024/02/10 16:37:56;;;;;;;28.73;18.67;;;;;;;;;;9937148;28;20078;-74
2024/02/10 16:42:48;;;;;;;35.05;17.50;;;;;;;;;;9921017;28;20086;-73
2024/02/10 16:47:42;;;;;;;31.02;17.85;;;;;;;;;;9938029;28;20050;-74
2024/02/10 16:52:38;;;;;;;34.83;19.50;;;;;;;;;;9939772;28;20047;-74
2024/02/10 16:57:32;;;;;;;33.03;21.95;;;;;;;;;;9909651;28;20094;-74
2024/02/10 17:02:24;;;;;;;34.88;20.75;;;;;;;;;;9931196;28;20051;-74
2024/02/10 17:07:16;;;;;;;37.17;20.60;;;;;;;;;;9919436;28;20191;-74
2024/02/10 17:12:09;;;;;;;43.35;25.05;;;;;;;;;;9932562;28;20055;-73
2024/02/10 17:17:01;;;;;;;35.55;27.90;;;;;;;;;;9934113;28;20469;-71
2024/02/10 17:21:54;;;;;;;37.60;24.10;;;;;;;;;;9929025;28;20050;-74
2024/02/10 17:26:46;;;;;;;32.15;19.88;;;;;;;;;;9926259;28;20454;-72
2024/02/10 17:31:39;;;;;;;30.17;19.05;;;;;;;;;;9934821;28;20053;-72
2024/02/10 17:36:32;;;;;;;33.60;18.33;;;;;;;;;;9929978;28;20137;-71
2024/02/10 17:41:24;;;;;;;33.63;16.63;;;;;;;;;;9931125;28;20138;-71
2024/02/10 17:46:16;;;;;;;23.35;16.48;;;;;;;;;;9932460;28;20052;-71
2024/02/10 17:51:08;;;;;;;52.42;17.45;;;;;;;;;;9941222;28;20050;-72
2024/02/10 17:56:01;;;;;;;40.53;17.58;;;;;;;;;;9935256;28;20059;-72
2024/02/10 18:00:53;;;;;;;48.88;20.85;;;;;;;;;;9940154;28;20751;-72
2024/02/10 18:05:49;;;;;;;49.72;20.50;;;;;;;;;;9933501;28;20070;-72
2024/02/10 18:10:41;;;;;;;51.85;21.92;;;;;;;;;;9925784;28;20055;-74
2024/02/10 18:15:34;;;;;;;62.67;23.48;;;;;;;;;;9929218;28;20125;-73
2024/02/10 18:20:28;;;;;;;59.08;18.50;;;;;;;;;;9940525;28;20405;-72
2024/02/10 18:25:24;;;;;;;51.72;21.48;;;;;;;;;;9932375;28;20186;-72
2024/02/10 18:30:20;;;;;;;67.03;20.52;;;;;;;;;;9943500;28;20164;-72
2024/02/10 18:35:34;;;;;;;82.43;22.75;;;;;;;;;;9924767;28;20121;-72
2024/02/10 18:40:28;;;;;;;69.25;20.63;;;;;;;;;;9940427;28;20535;-72
2024/02/10 18:45:20;;;;;;;58.67;19.60;;;;;;;;;;9932189;28;20375;-71
2024/02/10 18:50:16;;;;;;;70.15;21.67;;;;;;;;;;9913772;28;20099;-71
2024/02/10 18:55:09;;;;;;;85.95;26.02;;;;;;;;;;9924613;28;20073;-71
2024/02/10 19:00:02;;;;;;;94.68;24.42;;;;;;;;;;9935714;28;20054;-72
2024/02/10 19:04:54;;;;;;;77.93;25.63;;;;;;;;;;9939953;28;20086;-72
2024/02/10 19:09:46;;;;;;;85.40;22.05;;;;;;;;;;9943934;28;20042;-72
2024/02/10 19:14:40;;;;;;;71.68;22.80;;;;;;;;;;9939472;28;20117;-72
2024/02/10 19:19:32;;;;;;;82.88;21.80;;;;;;;;;;9926423;28;20430;-72
2024/02/10 19:24:24;;;;;;;71.60;22.75;;;;;;;;;;9912838;28;20055;-72
2024/02/10 19:29:17;;;;;;;80.72;23.77;;;;;;;;;;9940672;28;20050;-71
2024/02/10 19:34:09;;;;;;;76.97;22.42;;;;;;;;;;9930835;28;20046;-71
2024/02/10 19:39:01;;;;;;;88.93;24.33;;;;;;;;;;9937217;28;20250;-72
2024/02/10 19:43:54;;;;;;;75.40;23.58;;;;;;;;;;9913178;28;20043;-72
2024/02/10 19:48:46;;;;;;;84.75;24.73;;;;;;;;;;9940159;28;20051;-73
2024/02/10 19:53:39;;;;;;;68.35;20.70;;;;;;;;;;9934854;28;20170;-74
2024/02/10 19:58:34;;;;;;;75.05;22.70;;;;;;;;;;9932904;28;20046;-73
2024/02/10 20:03:29;;;;;;;80.13;21.45;;;;;;;;;;9935638;28;20047;-72
2024/02/10 20:08:22;;;;;;;78.28;23.60;;;;;;;;;;9928564;28;20098;-71
2024/02/10 20:13:14;;;;;;;67.95;24.45;;;;;;;;;;9937991;28;20043;-71
2024/02/10 20:18:06;;;;;;;93.78;30.70;;;;;;;;;;9929989;28;20826;-73
2024/02/10 20:22:59;;;;;;;82.57;24.98;;;;;;;;;;9916344;28;20055;-75
2024/02/10 20:27:51;;;;;;;82.82;30.95;;;;;;;;;;9934566;28;20055;-71
2024/02/10 20:32:43;;;;;;;79.30;28.25;;;;;;;;;;9937698;28;20046;-71
2024/02/10 20:37:35;;;;;;;97.07;29.00;;;;;;;;;;9925988;28;20158;-71
2024/02/10 20:42:28;;;;;;;78.20;28.77;;;;;;;;;;9936627;28;20481;-71
2024/02/10 20:47:19;;;;;;;75.57;27.55;;;;;;;;;;9932798;28;20134;-73
2024/02/10 20:52:13;;;;;;;76.65;25.23;;;;;;;;;;9931210;28;20703;-72
2024/02/10 20:57:07;;;;;;;60.45;25.50;;;;;;;;;;9934171;28;20082;-72
2024/02/10 21:01:59;;;;;;;68.40;25.83;;;;;;;;;;9939777;28;20579;-72
2024/02/10 21:06:54;;;;;;;70.72;26.95;;;;;;;;;;9932012;28;20058;-72
2024/02/10 21:11:46;;;;;;;67.88;29.20;;;;;;;;;;9926015;28;20070;-72
2024/02/10 21:16:40;;;;;;;81.50;28.70;;;;;;;;;;9928924;28;20105;-72
2024/02/10 21:21:33;;;;;;;76.53;28.38;;;;;;;;;;9923071;28;20051;-72
2024/02/10 21:26:25;;;;;;;67.38;26.92;;;;;;;;;;9925310;28;20078;-72
2024/02/10 21:31:19;;;;;;;84.07;27.58;;;;;;;;;;9917974;28;20053;-72
2024/02/10 21:36:11;;;;;;;89.15;24.77;;;;;;;;;;9915895;28;20051;-72
2024/02/10 21:41:03;;;;;;;65.45;24.50;;;;;;;;;;9930832;28;20046;-72
2024/02/10 21:45:55;;;;;;;61.33;23.63;;;;;;;;;;9924414;28;20707;-72
2024/02/10 21:50:48;;;;;;;59.30;22.70;;;;;;;;;;9916232;28;20074;-72
2024/02/10 21:55:42;;;;;;;65.10;21.27;;;;;;;;;;9924218;28;20157;-72
2024/02/10 22:00:34;;;;;;;66.95;21.17;;;;;;;;;;9920458;28;20160;-72
2024/02/10 22:05:26;;;;;;;58.85;21.05;;;;;;;;;;9934848;28;20082;-72
2024/02/10 22:10:19;;;;;;;63.45;23.30;;;;;;;;;;9938246;28;20050;-72
2024/02/10 22:15:12;;;;;;;65.10;22.80;;;;;;;;;;9944956;28;20416;-72
2024/02/10 22:20:06;;;;;;;56.30;21.35;;;;;;;;;;9930005;28;20063;-72
2024/02/10 22:24:58;;;;;;;60.78;23.13;;;;;;;;;;9945752;28;20105;-72
2024/02/10 22:29:50;;;;;;;66.45;22.70;;;;;;;;;;9938624;28;20097;-72
2024/02/10 22:34:43;;;;;;;72.45;20.48;;;;;;;;;;9944718;28;20125;-72
2024/02/10 22:39:38;;;;;;;61.17;20.17;;;;;;;;;;9940981;28;20181;-72
2024/02/10 22:44:30;;;;;;;71.50;21.05;;;;;;;;;;9945380;28;20137;-72
2024/02/10 22:49:22;;;;;;;70.00;20.90;;;;;;;;;;9942006;28;20129;-72
2024/02/10 22:54:14;;;;;;;57.22;24.75;;;;;;;;;;9941626;28;20721;-72
2024/02/10 22:59:06;;;;;;;48.20;22.17;;;;;;;;;;9938057;28;20098;-72
2024/02/10 23:03:59;;;;;;;53.50;20.65;;;;;;;;;;9943478;28;20049;-72
2024/02/10 23:08:51;;;;;;;71.75;22.50;;;;;;;;;;9940753;28;20054;-72
2024/02/10 23:13:47;;;;;;;62.53;21.30;;;;;;;;;;9941645;28;20043;-72
2024/02/10 23:18:39;;;;;;;77.57;19.63;;;;;;;;;;9940938;28;20098;-72
2024/02/10 23:23:32;;;;;;;70.68;20.13;;;;;;;;;;9944834;28;20462;-73
2024/02/10 23:28:25;;;;;;;62.20;18.92;;;;;;;;;;9942944;28;20054;-72
2024/02/10 23:33:20;;;;;;;63.97;21.88;;;;;;;;;;9943803;28;20497;-72
2024/02/10 23:38:14;;;;;;;75.55;19.90;;;;;;;;;;9926493;28;20058;-72
2024/02/10 23:43:07;;;;;;;86.43;20.95;;;;;;;;;;9930089;28;20056;-72
2024/02/10 23:48:00;;;;;;;82.38;19.88;;;;;;;;;;9908185;28;20077;-72
2024/02/10 23:52:52;;;;;;;85.28;22.38;;;;;;;;;;9907068;28;20082;-72
2024/02/10 23:57:44;;;;;;;138.48;19.60;;;;;;;;;;9906375;28;20459;-73
